createdAt,value
2023-04-03T00:00:50.881Z,1.83
2023-04-03T00:03:18.949Z,1.95
2023-04-03T00:05:49.568Z,0.85
2023-04-03T00:08:18.473Z,0.82
2023-04-03T00:10:45.320Z,0.77
2023-04-03T00:13:12.551Z,0.90
2023-04-03T00:15:40.189Z,0.90
2023-04-03T00:18:08.044Z,1.30
2023-04-03T00:20:36.233Z,1.20
2023-04-03T00:23:03.717Z,1.40
2023-04-03T00:25:30.552Z,1.42
2023-04-03T00:27:57.392Z,1.13
2023-04-03T00:30:24.755Z,1.20
2023-04-03T00:32:52.841Z,1.52
2023-04-03T00:35:21.155Z,2.05
2023-04-03T00:37:48.904Z,1.25
2023-04-03T00:40:17.187Z,1.10
2023-04-03T00:42:45.310Z,0.73
2023-04-03T00:45:11.989Z,1.17
2023-04-03T00:47:41.126Z,1.80
2023-04-03T00:50:08.508Z,0.75
2023-04-03T00:52:35.556Z,0.82
2023-04-03T00:55:08.748Z,0.65
2023-04-03T00:57:36.298Z,0.45
2023-04-03T01:00:08.284Z,0.70
2023-04-03T01:02:35.176Z,0.95
2023-04-03T01:05:17.867Z,0.75
2023-04-03T01:07:45.587Z,0.75
2023-04-03T01:10:15.568Z,0.68
2023-04-03T01:12:46.756Z,0.80
2023-04-03T01:15:21.892Z,0.68
2023-04-03T01:17:51.478Z,0.60
2023-04-03T01:20:34.296Z,1.15
2023-04-03T01:23:39.183Z,0.60
2023-04-03T01:26:06.380Z,0.65
2023-04-03T01:28:36.920Z,0.45
2023-04-03T01:31:09.517Z,0.43
2023-04-03T01:33:36.811Z,0.50
2023-04-03T01:36:04.821Z,0.50
2023-04-03T01:38:32.029Z,0.47
2023-04-03T01:40:58.773Z,0.57
2023-04-03T01:43:25.650Z,0.50
2023-04-03T01:45:53.932Z,0.40
2023-04-03T01:48:20.798Z,0.52
2023-04-03T01:50:47.652Z,0.95
2023-04-03T01:53:15.023Z,0.55
2023-04-03T01:55:41.783Z,0.43
2023-04-03T01:58:08.605Z,0.50
2023-04-03T02:00:35.503Z,0.47
2023-04-03T02:03:02.959Z,0.40
2023-04-03T02:05:29.934Z,0.50
2023-04-03T02:07:57.410Z,0.70
2023-04-03T02:10:24.167Z,0.50
2023-04-03T02:12:51.582Z,0.50
2023-04-03T02:15:18.948Z,0.50
2023-04-03T02:17:45.826Z,0.40
2023-04-03T02:20:12.998Z,0.43
2023-04-03T02:22:39.765Z,0.45
2023-04-03T02:25:06.661Z,0.73
2023-04-03T02:27:33.534Z,0.45
2023-04-03T02:30:00.321Z,0.50
2023-04-03T02:32:27.299Z,0.63
2023-04-03T02:34:54.270Z,0.52
2023-04-03T02:37:21.795Z,0.50
2023-04-03T02:39:48.752Z,2.30
2023-04-03T02:42:15.813Z,0.47
2023-04-03T02:44:42.699Z,0.77
2023-04-03T02:47:09.605Z,0.82
2023-04-03T02:49:36.416Z,0.40
2023-04-03T02:52:03.245Z,0.52
2023-04-03T02:54:31.604Z,0.60
2023-04-03T02:56:59.061Z,0.90
2023-04-03T02:59:25.875Z,0.60
2023-04-03T03:01:52.712Z,0.82
2023-04-03T03:04:19.776Z,0.40
2023-04-03T03:06:47.876Z,0.63
2023-04-03T03:09:15.740Z,1.35
2023-04-03T03:11:42.528Z,1.08
2023-04-03T03:14:09.321Z,0.85
2023-04-03T03:16:36.140Z,0.35
2023-04-03T03:19:03.319Z,0.52
2023-04-03T03:21:30.105Z,0.63
2023-04-03T03:23:56.887Z,0.55
2023-04-03T03:26:23.731Z,1.23
2023-04-03T03:28:50.580Z,1.17
2023-04-03T03:31:17.348Z,0.60
2023-04-03T03:33:44.162Z,0.52
2023-04-03T03:36:11.798Z,0.52
2023-04-03T03:38:38.649Z,1.33
2023-04-03T03:41:05.773Z,0.98
2023-04-03T03:43:32.542Z,0.82
2023-04-03T03:45:59.371Z,0.80
2023-04-03T03:48:26.236Z,0.77
2023-04-03T03:50:53.024Z,0.82
2023-04-03T03:53:20.412Z,0.47
2023-04-03T03:55:47.262Z,0.73
2023-04-03T03:58:14.021Z,1.40
2023-04-03T04:00:41.001Z,0.38
2023-04-03T04:03:07.826Z,0.40
2023-04-03T04:05:34.854Z,0.75
2023-04-03T04:08:01.898Z,0.68
2023-04-03T04:10:28.662Z,0.70
2023-04-03T04:12:57.368Z,0.40
2023-04-03T04:15:26.576Z,0.43
2023-04-03T04:17:54.332Z,0.40
2023-04-03T04:20:21.212Z,0.70
2023-04-03T04:22:47.987Z,0.45
2023-04-03T04:25:14.840Z,0.55
2023-04-03T04:27:41.787Z,0.40
2023-04-03T04:30:09.200Z,0.22
2023-04-03T04:32:36.654Z,0.40
2023-04-03T04:35:04.941Z,1.15
2023-04-03T04:37:31.780Z,0.55
2023-04-03T04:39:58.628Z,0.70
2023-04-03T04:42:25.667Z,0.50
2023-04-03T04:44:52.551Z,0.50
2023-04-03T04:47:19.333Z,0.63
2023-04-03T04:49:48.367Z,1.08
2023-04-03T04:52:15.410Z,0.47
2023-04-03T04:54:42.340Z,0.60
2023-04-03T04:57:09.289Z,0.50
2023-04-03T04:59:36.108Z,0.50
2023-04-03T05:02:03.074Z,0.30
2023-04-03T05:04:29.993Z,0.40
2023-04-03T05:06:56.811Z,0.30
2023-04-03T05:09:23.690Z,0.50
2023-04-03T05:11:50.517Z,0.35
2023-04-03T05:14:17.445Z,0.55
2023-04-03T05:16:44.274Z,0.30
2023-04-03T05:19:11.254Z,0.63
2023-04-03T05:21:38.013Z,0.70
2023-04-03T05:24:05.239Z,0.52
2023-04-03T05:26:32.955Z,0.80
2023-04-03T05:28:59.674Z,0.70
2023-04-03T05:31:26.525Z,1.10
2023-04-03T05:33:53.306Z,0.90
2023-04-03T05:36:20.186Z,0.77
2023-04-03T05:38:47.651Z,0.57
2023-04-03T05:41:16.131Z,0.93
2023-04-03T05:43:43.069Z,1.63
2023-04-03T05:46:13.184Z,1.38
2023-04-03T05:48:40.356Z,4.15
2023-04-03T05:51:08.372Z,3.35
2023-04-03T05:53:40.280Z,3.72
2023-04-03T05:56:07.260Z,4.05
2023-04-03T05:58:34.070Z,3.95
2023-04-03T06:01:00.846Z,4.72
2023-04-03T06:03:28.181Z,3.42
2023-04-03T06:05:55.792Z,2.30
2023-04-03T06:08:22.987Z,1.77
2023-04-03T06:10:51.473Z,2.17
2023-04-03T06:13:18.607Z,2.63
2023-04-03T06:15:45.942Z,2.00
2023-04-03T06:18:13.111Z,1.77
2023-04-03T06:20:41.062Z,1.58
2023-04-03T06:23:08.675Z,3.17
2023-04-03T06:25:36.365Z,2.53
2023-04-03T06:28:03.501Z,2.88
2023-04-03T06:30:30.646Z,4.55
2023-04-03T06:32:57.867Z,3.03
2023-04-03T06:35:25.039Z,2.67
2023-04-03T06:37:52.217Z,4.82
2023-04-03T06:40:27.526Z,2.58
2023-04-03T06:42:54.345Z,1.73
2023-04-03T06:45:21.465Z,1.85
2023-04-03T06:47:48.391Z,2.83
2023-04-03T06:50:16.282Z,4.85
2023-04-03T06:52:43.162Z,2.25
2023-04-03T06:55:11.070Z,5.63
2023-04-03T06:57:38.341Z,2.85
2023-04-03T07:00:06.831Z,3.90
2023-04-03T07:02:33.845Z,2.17
2023-04-03T07:05:00.712Z,6.97
2023-04-03T07:07:27.576Z,3.15
2023-04-03T07:09:54.732Z,4.63
2023-04-03T07:12:21.745Z,2.45
2023-04-03T07:14:48.542Z,4.75
2023-04-03T07:17:15.545Z,3.53
2023-04-03T07:19:42.297Z,5.25
2023-04-03T07:22:09.333Z,2.45
2023-04-03T07:24:36.745Z,3.22
2023-04-03T07:27:03.971Z,1.95
2023-04-03T07:29:31.169Z,4.18
2023-04-03T07:31:58.241Z,4.15
2023-04-03T07:34:25.448Z,1.95
2023-04-03T07:36:52.235Z,3.35
2023-04-03T07:39:19.102Z,4.75
2023-04-03T07:41:46.690Z,5.85
2023-04-03T07:44:13.680Z,4.50
2023-04-03T07:46:41.555Z,2.60
2023-04-03T07:49:08.549Z,4.10
2023-04-03T07:51:35.641Z,2.25
2023-04-03T07:54:02.566Z,3.45
2023-04-03T07:56:29.371Z,3.47
2023-04-03T07:58:56.256Z,2.80
2023-04-03T08:01:23.127Z,3.22
2023-04-03T08:03:50.047Z,4.22
2023-04-03T08:06:20.017Z,1.83
2023-04-03T08:08:50.861Z,5.60
2023-04-03T08:11:17.684Z,2.13
2023-04-03T08:13:44.595Z,3.13
2023-04-03T08:16:14.141Z,1.65
2023-04-03T08:18:41.250Z,2.22
2023-04-03T08:21:12.362Z,2.35
2023-04-03T08:23:42.037Z,2.20
2023-04-03T08:26:09.786Z,4.05
2023-04-03T08:28:36.702Z,2.55
2023-04-03T08:31:08.041Z,5.38
2023-04-03T08:33:37.421Z,2.58
2023-04-03T08:36:27.144Z,4.15
2023-04-03T08:38:55.944Z,4.30
2023-04-03T08:41:41.042Z,2.50
2023-04-03T08:44:39.279Z,3.78
2023-04-03T08:47:27.321Z,2.05
2023-04-03T08:50:01.240Z,2.70
2023-04-03T08:52:57.440Z,5.72
2023-04-03T08:55:29.123Z,7.05
2023-04-03T08:58:03.205Z,6.78
2023-04-03T09:00:46.573Z,3.35
2023-04-03T09:03:15.801Z,2.60
2023-04-03T09:05:46.302Z,5.05
2023-04-03T09:08:16.634Z,3.45
2023-04-03T09:10:43.722Z,2.70
2023-04-03T09:13:40.330Z,2.95
2023-04-03T09:16:26.766Z,3.17
2023-04-03T09:19:05.034Z,4.47
2023-04-03T09:21:43.893Z,5.10
2023-04-03T09:24:14.885Z,4.55
2023-04-03T09:26:55.993Z,3.25
2023-04-03T09:29:24.850Z,2.15
2023-04-03T09:31:58.046Z,3.20
2023-04-03T09:34:32.369Z,3.20
2023-04-03T09:37:06.765Z,3.83
2023-04-03T09:39:50.674Z,3.05
2023-04-03T09:42:25.842Z,2.08
2023-04-03T09:45:23.502Z,3.25
2023-04-03T09:47:50.582Z,3.30
2023-04-03T09:50:26.582Z,3.92
2023-04-03T09:52:53.748Z,3.17
2023-04-03T09:55:27.895Z,3.25
2023-04-03T09:57:57.823Z,2.92
2023-04-03T10:00:39.773Z,2.85
2023-04-03T10:03:23.377Z,4.03
2023-04-03T10:05:52.495Z,2.95
2023-04-03T10:08:19.320Z,1.88
2023-04-03T10:10:48.620Z,2.97
2023-04-03T10:13:21.334Z,4.25
2023-04-03T10:16:02.769Z,2.33
2023-04-03T10:18:53.968Z,4.10
2023-04-03T10:21:58.676Z,3.15
2023-04-03T10:24:40.249Z,3.65
2023-04-03T10:27:36.417Z,3.50
2023-04-03T10:30:12.545Z,2.40
2023-04-03T10:32:58.145Z,2.60
2023-04-03T10:35:40.513Z,3.03
2023-04-03T10:38:13.178Z,2.33
2023-04-03T10:41:01.862Z,1.42
2023-04-03T10:43:45.405Z,3.92
2023-04-03T10:46:31.649Z,3.72
2023-04-03T10:49:10.316Z,3.83
2023-04-03T10:51:48.046Z,3.25
2023-04-03T10:54:17.940Z,2.83
2023-04-03T10:57:11.688Z,1.95
2023-04-03T10:59:48.278Z,2.72
2023-04-03T11:02:18.404Z,2.08
2023-04-03T11:04:48.821Z,1.80
2023-04-03T11:07:24.358Z,1.52
2023-04-03T11:10:00.361Z,1.63
2023-04-03T11:12:49.095Z,3.80
2023-04-03T11:15:21.898Z,3.30
2023-04-03T11:17:48.625Z,2.45
2023-04-03T11:20:20.645Z,1.35
2023-04-03T11:22:59.841Z,2.20
2023-04-03T11:25:27.348Z,1.77
2023-04-03T11:27:58.921Z,2.92
2023-04-03T11:30:51.494Z,3.33
2023-04-03T11:33:44.938Z,4.32
2023-04-03T11:36:36.224Z,1.73
2023-04-03T11:39:22.645Z,2.13
2023-04-03T11:41:51.686Z,1.73
2023-04-03T11:44:38.552Z,2.55
2023-04-03T11:47:32.581Z,1.65
2023-04-03T11:50:01.448Z,2.40
2023-04-03T11:52:43.766Z,2.22
2023-04-03T11:55:31.476Z,1.55
2023-04-03T11:58:04.607Z,4.68
2023-04-03T12:00:47.422Z,2.95
2023-04-03T12:03:26.565Z,3.00
2023-04-03T12:05:58.567Z,3.70
2023-04-03T12:08:34.355Z,1.95
2023-04-03T12:11:10.308Z,2.05
2023-04-03T12:13:39.383Z,1.83
2023-04-03T12:16:08.757Z,2.53
2023-04-03T12:18:50.565Z,3.10
2023-04-03T12:21:20.000Z,2.53
2023-04-03T12:24:24.106Z,3.15
2023-04-03T12:27:02.923Z,5.22
2023-04-03T12:29:35.660Z,3.30
2023-04-03T12:32:14.593Z,4.68
2023-04-03T12:34:49.989Z,2.33
2023-04-03T12:37:36.351Z,2.17
2023-04-03T12:40:21.588Z,1.90
2023-04-03T12:43:08.590Z,2.45
2023-04-03T12:45:53.450Z,3.83
2023-04-03T12:48:26.258Z,2.28
2023-04-03T12:50:53.546Z,3.78
2023-04-03T12:53:40.540Z,2.13
2023-04-03T12:56:30.353Z,2.25
2023-04-03T12:59:30.520Z,2.45
2023-04-03T13:02:00.052Z,2.17
2023-04-03T13:04:28.489Z,2.25
2023-04-03T13:06:55.860Z,2.55
2023-04-03T13:09:28.728Z,4.18
2023-04-03T13:12:15.156Z,3.47
2023-04-03T13:14:52.362Z,3.10
2023-04-03T13:17:19.323Z,4.95
2023-04-03T13:19:47.634Z,3.08
2023-04-03T13:22:26.345Z,1.90
2023-04-03T13:24:55.285Z,2.22
2023-04-03T13:27:22.831Z,2.90
2023-04-03T13:29:55.629Z,2.65
2023-04-03T13:32:25.689Z,1.65
2023-04-03T13:34:52.611Z,2.75
2023-04-03T13:37:30.101Z,3.08
2023-04-03T13:40:13.807Z,3.60
2023-04-03T13:42:42.343Z,1.70
2023-04-03T13:45:11.885Z,1.40
2023-04-03T13:47:42.073Z,2.58
2023-04-03T13:50:19.418Z,3.83
2023-04-03T13:53:04.559Z,1.73
2023-04-03T13:55:34.806Z,1.83
2023-04-03T13:58:20.390Z,2.95
2023-04-03T14:00:54.668Z,5.07
2023-04-03T14:03:44.793Z,1.95
2023-04-03T14:06:15.319Z,2.05
2023-04-03T14:08:43.938Z,2.30
2023-04-03T14:11:25.126Z,2.50
2023-04-03T14:13:52.453Z,3.22
2023-04-03T14:16:22.470Z,2.30
2023-04-03T14:18:50.751Z,2.25
2023-04-03T14:21:19.344Z,1.92
2023-04-03T14:23:47.234Z,3.35
2023-04-03T14:26:18.711Z,3.03
2023-04-03T14:28:48.017Z,4.00
2023-04-03T14:31:17.065Z,2.15
2023-04-03T14:33:44.738Z,1.45
2023-04-03T14:36:13.548Z,3.20
2023-04-03T14:38:40.774Z,3.17
2023-04-03T14:41:15.918Z,2.78
2023-04-03T14:43:45.104Z,2.22
2023-04-03T14:46:19.770Z,2.33
2023-04-03T14:48:46.761Z,2.20
2023-04-03T14:51:14.994Z,2.75
2023-04-03T14:53:43.439Z,3.17
2023-04-03T14:56:30.713Z,4.03
2023-04-03T14:59:03.980Z,3.75
2023-04-03T15:01:31.440Z,3.10
2023-04-03T15:03:58.440Z,3.33
2023-04-03T15:06:26.356Z,3.03
2023-04-03T15:08:53.248Z,2.10
2023-04-03T15:11:20.068Z,2.50
2023-04-03T15:13:47.706Z,2.30
2023-04-03T15:16:18.490Z,2.13
2023-04-03T15:18:46.460Z,2.75
2023-04-03T15:21:13.417Z,2.50
2023-04-03T15:23:40.497Z,2.33
2023-04-03T15:26:07.597Z,2.63
2023-04-03T15:28:38.647Z,2.53
2023-04-03T15:31:06.559Z,3.78
2023-04-03T15:33:34.581Z,3.88
2023-04-03T15:36:07.458Z,2.47
2023-04-03T15:38:39.216Z,2.65
2023-04-03T15:41:06.481Z,2.45
2023-04-03T15:43:34.815Z,3.97
2023-04-03T15:46:02.144Z,3.90
2023-04-03T15:48:29.511Z,2.30
2023-04-03T15:50:57.790Z,4.68
2023-04-03T15:53:25.914Z,3.95
2023-04-03T15:55:52.686Z,2.85
2023-04-03T15:58:19.535Z,3.72
2023-04-03T16:00:46.632Z,4.78
2023-04-03T16:03:18.220Z,2.90
2023-04-03T16:05:45.629Z,3.55
2023-04-03T16:08:13.205Z,3.42
2023-04-03T16:10:40.821Z,3.17
2023-04-03T16:13:08.338Z,3.30
2023-04-03T16:15:36.753Z,3.75
2023-04-03T16:18:04.257Z,3.30
2023-04-03T16:20:31.751Z,3.17
2023-04-03T16:23:00.958Z,3.22
2023-04-03T16:25:28.119Z,2.65
2023-04-03T16:27:55.544Z,2.17
2023-04-03T16:30:22.466Z,3.10
2023-04-03T16:32:49.498Z,3.28
2023-04-03T16:35:16.402Z,2.90
2023-04-03T16:37:43.215Z,2.05
2023-04-03T16:40:10.994Z,3.00
2023-04-03T16:42:38.287Z,4.18
2023-04-03T16:45:07.055Z,2.08
2023-04-03T16:47:34.130Z,2.42
2023-04-03T16:50:01.796Z,2.55
2023-04-03T16:52:28.687Z,2.80
2023-04-03T16:54:56.663Z,2.53
2023-04-03T16:57:25.869Z,1.70
2023-04-03T16:59:53.276Z,1.52
2023-04-03T17:02:21.622Z,1.80
2023-04-03T17:04:50.663Z,2.53
2023-04-03T17:07:22.127Z,1.60
2023-04-03T17:09:49.375Z,2.20
2023-04-03T17:12:17.121Z,2.13
2023-04-03T17:14:44.488Z,1.38
2023-04-03T17:17:11.351Z,2.80
2023-04-03T17:19:38.617Z,2.97
2023-04-03T17:22:05.744Z,1.63
2023-04-03T17:24:32.512Z,2.47
2023-04-03T17:26:59.259Z,1.30
2023-04-03T17:29:26.152Z,2.13
2023-04-03T17:31:52.925Z,1.67
2023-04-03T17:34:19.866Z,1.30
2023-04-03T17:36:46.745Z,2.15
2023-04-03T17:39:13.642Z,2.78
2023-04-03T17:41:40.767Z,1.73
2023-04-03T17:44:07.752Z,2.85
2023-04-03T17:46:35.430Z,7.30
2023-04-03T17:49:03.481Z,5.47
2023-04-03T17:51:32.528Z,5.22
2023-04-03T17:53:59.304Z,9.45
2023-04-03T17:56:29.739Z,8.70
2023-04-03T17:58:58.666Z,5.18
2023-04-03T18:01:31.781Z,2.70
2023-04-03T18:04:01.131Z,1.23
2023-04-03T18:06:49.647Z,1.45
2023-04-03T18:09:23.712Z,2.15
2023-04-03T18:11:51.491Z,2.17
2023-04-03T18:14:21.755Z,1.67
2023-04-03T18:16:48.991Z,4.05
2023-04-03T18:21:47.800Z,2.65
2023-04-03T18:24:17.531Z,2.75
2023-04-03T18:26:47.675Z,2.40
2023-04-03T18:29:16.178Z,2.67
2023-04-03T18:31:47.784Z,2.22
2023-04-03T18:34:14.974Z,1.00
2023-04-03T18:36:41.974Z,1.15
2023-04-03T18:39:09.027Z,1.63
2023-04-03T18:41:37.765Z,1.55
2023-04-03T18:44:08.783Z,1.80
2023-04-03T18:49:05.404Z,1.25
2023-04-03T18:51:32.328Z,2.00
2023-04-03T18:54:00.080Z,2.28
2023-04-03T18:56:27.283Z,1.67
2023-04-03T18:58:54.172Z,3.00
2023-04-03T19:01:21.323Z,1.75
2023-04-03T19:03:48.443Z,2.45
2023-04-03T19:06:15.487Z,3.08
2023-04-03T19:08:42.493Z,2.03
2023-04-03T19:11:09.711Z,2.05
2023-04-03T19:13:42.693Z,3.00
2023-04-03T19:16:23.645Z,1.42
2023-04-03T19:18:50.460Z,1.83
2023-04-03T19:21:18.313Z,1.58
2023-04-03T19:23:45.446Z,1.83
2023-04-03T19:26:13.669Z,1.88
2023-04-03T19:28:41.675Z,1.27
2023-04-03T19:31:14.356Z,1.13
2023-04-03T19:33:42.227Z,1.45
2023-04-03T19:36:10.249Z,1.75
2023-04-03T19:38:37.592Z,1.00
2023-04-03T19:41:19.556Z,1.13
2023-04-03T19:43:46.840Z,0.77
2023-04-03T19:46:13.796Z,1.55
2023-04-03T19:48:40.732Z,1.77
2023-04-03T19:51:08.408Z,1.08
2023-04-03T19:53:35.190Z,1.48
2023-04-03T19:56:02.210Z,0.90
2023-04-03T19:58:29.846Z,1.45
2023-04-03T20:00:57.916Z,0.65
2023-04-03T20:03:25.365Z,0.75
2023-04-03T20:05:52.726Z,0.85
2023-04-03T20:08:19.885Z,0.45
2023-04-03T20:10:47.030Z,0.57
2023-04-03T20:13:14.023Z,0.77
2023-04-03T20:15:42.838Z,1.67
2023-04-03T20:18:17.917Z,0.70
2023-04-03T20:20:52.282Z,1.13
2023-04-03T20:23:19.415Z,1.08
2023-04-03T20:25:57.672Z,0.95
2023-04-03T20:28:34.318Z,0.55
2023-04-03T20:31:03.642Z,2.60
2023-04-03T20:33:30.484Z,1.13
2023-04-03T20:35:58.131Z,0.80
2023-04-03T20:38:25.418Z,0.98
2023-04-03T20:40:52.444Z,2.03
2023-04-03T20:43:21.733Z,3.33
2023-04-03T20:45:49.349Z,1.75
2023-04-03T20:48:16.796Z,2.35
2023-04-03T20:50:45.946Z,1.85
2023-04-03T20:53:13.635Z,1.08
2023-04-03T20:55:41.350Z,1.60
2023-04-03T20:58:08.675Z,0.70
2023-04-03T21:00:37.996Z,1.10
2023-04-03T21:03:05.769Z,1.00
2023-04-03T21:05:34.796Z,1.77
2023-04-03T21:08:40.229Z,1.45
2023-04-03T21:11:44.919Z,1.67
2023-04-03T21:14:49.739Z,1.60
2023-04-03T21:17:16.564Z,1.63
2023-04-03T21:19:46.527Z,1.75
2023-04-03T21:22:14.697Z,1.65
2023-04-03T21:24:41.892Z,1.17
2023-04-03T21:27:09.205Z,2.08
2023-04-03T21:29:36.376Z,1.60
2023-04-03T21:32:03.581Z,0.82
2023-04-03T21:34:31.615Z,1.58
2023-04-03T21:37:06.260Z,1.35
2023-04-03T21:39:33.958Z,0.60
2023-04-03T21:42:01.849Z,2.15
2023-04-03T21:44:29.095Z,1.63
2023-04-03T21:46:56.655Z,2.35
2023-04-03T21:49:24.707Z,0.90
2023-04-03T21:51:52.475Z,1.70
2023-04-03T21:54:20.434Z,3.03
2023-04-03T21:56:48.401Z,1.13
2023-04-03T21:59:16.384Z,1.38
2023-04-03T22:01:44.070Z,1.77
2023-04-03T22:04:11.600Z,1.70
2023-04-03T22:06:38.871Z,1.20
2023-04-03T22:09:06.145Z,1.60
2023-04-03T22:11:33.402Z,1.52
2023-04-03T22:14:01.011Z,2.50
2023-04-03T22:16:28.455Z,1.20
2023-04-03T22:18:59.502Z,2.22
2023-04-03T22:21:27.137Z,1.42
2023-04-03T22:23:54.792Z,1.15
2023-04-03T22:26:22.246Z,1.58
2023-04-03T22:28:49.406Z,1.42
2023-04-03T22:31:16.931Z,1.42
2023-04-03T22:33:45.225Z,1.80
2023-04-03T22:36:13.048Z,3.50
2023-04-03T22:38:44.037Z,3.20
2023-04-03T22:41:11.848Z,2.63
2023-04-03T22:43:39.784Z,2.58
2023-04-03T22:46:08.697Z,2.00
2023-04-03T22:48:36.822Z,3.88
2023-04-03T22:51:08.245Z,2.92
2023-04-03T22:53:36.098Z,3.60
2023-04-03T22:56:04.916Z,2.47
2023-04-03T22:58:32.299Z,1.77
2023-04-03T23:01:13.023Z,2.03
2023-04-03T23:03:41.355Z,1.77
2023-04-03T23:06:09.233Z,1.77
2023-04-03T23:08:40.973Z,0.82
2023-04-03T23:11:09.577Z,2.00
2023-04-03T23:13:37.008Z,0.98
2023-04-03T23:16:04.730Z,0.75
2023-04-03T23:18:39.773Z,0.73
2023-04-03T23:21:08.526Z,0.80
2023-04-03T23:23:36.061Z,1.10
2023-04-03T23:26:03.566Z,1.23
2023-04-03T23:28:31.229Z,1.05
2023-04-03T23:31:03.996Z,0.70
2023-04-03T23:33:31.750Z,0.80
2023-04-03T23:35:59.527Z,0.45
2023-04-03T23:38:26.843Z,0.95
2023-04-03T23:40:54.073Z,0.90
2023-04-03T23:43:21.706Z,0.40
2023-04-03T23:45:48.912Z,0.50
2023-04-03T23:48:16.174Z,0.30
2023-04-03T23:50:44.265Z,1.45
2023-04-03T23:53:13.528Z,0.47
2023-04-03T23:55:40.896Z,0.63
2023-04-03T23:58:08.142Z,1.63
